Terminal Aerodrome Forecast
Issued by NWS San Angelo, TX

Home | Current Version | Previous Version | Text Only | Print | Product List | Glossary On
Versions: 1 2 3 4 5 6 7 8 9 10 11 12 13 14 15 16
000
FTUS44 KSJT 182000 AAA
TAFSJT
TAF AMD
KSJT 182009Z 1820/1918 16006KT P6SM SCT050
     FM182100 15006KT P6SM VCTS BKN040CB
      TEMPO 1822/1901 VRB10G20KT 3SM +TSRA BKN025CB
     FM190200 12006KT P6SM VCSH BKN040
     FM190600 11005KT P6SM BKN050 BKN200
      TEMPO 1912/1915 BKN020=

USA.gov is the U.S. government's official web portal to all federal, state and local government web resources and services.